sensor_id;sensor_type;location;lat;lon;timestamp;P1;durP1;ratioP1;P2;durP2;ratioP2
17171;SDS011;8701;50.150;8.756;2023-03-22T00:01:09;24.30;;;16.53;;
17171;SDS011;8701;50.150;8.756;2023-03-22T00:05:12;22.77;;;15.93;;
17171;SDS011;8701;50.150;8.756;2023-03-22T00:09:15;21.80;;;15.90;;
17171;SDS011;8701;50.150;8.756;2023-03-22T00:13:19;26.83;;;16.07;;
17171;SDS011;8701;50.150;8.756;2023-03-22T00:17:21;21.70;;;14.57;;
17171;SDS011;8701;50.150;8.756;2023-03-22T00:21:25;20.10;;;14.60;;
17171;SDS011;8701;50.150;8.756;2023-03-22T00:25:28;20.83;;;13.10;;
17171;SDS011;8701;50.150;8.756;2023-03-22T00:29:31;19.10;;;13.43;;
17171;SDS011;8701;50.150;8.756;2023-03-22T00:33:34;18.20;;;13.37;;
17171;SDS011;8701;50.150;8.756;2023-03-22T00:37:37;21.77;;;14.50;;
17171;SDS011;8701;50.150;8.756;2023-03-22T00:41:39;20.93;;;13.73;;
17171;SDS011;8701;50.150;8.756;2023-03-22T00:45:43;19.43;;;12.97;;
17171;SDS011;8701;50.150;8.756;2023-03-22T00:49:46;20.23;;;14.20;;
17171;SDS011;8701;50.150;8.756;2023-03-22T00:53:48;22.23;;;15.30;;
17171;SDS011;8701;50.150;8.756;2023-03-22T00:57:51;18.00;;;13.87;;
17171;SDS011;8701;50.150;8.756;2023-03-22T01:01:55;29.07;;;14.73;;
17171;SDS011;8701;50.150;8.756;2023-03-22T01:05:58;20.07;;;14.70;;
17171;SDS011;8701;50.150;8.756;2023-03-22T01:10:01;22.93;;;14.70;;
17171;SDS011;8701;50.150;8.756;2023-03-22T01:14:03;23.13;;;14.07;;
17171;SDS011;8701;50.150;8.756;2023-03-22T01:18:07;18.63;;;12.90;;
17171;SDS011;8701;50.150;8.756;2023-03-22T01:22:10;18.17;;;13.20;;
17171;SDS011;8701;50.150;8.756;2023-03-22T01:26:12;19.87;;;13.40;;
17171;SDS011;8701;50.150;8.756;2023-03-22T01:30:15;17.90;;;13.03;;
17171;SDS011;8701;50.150;8.756;2023-03-22T01:34:18;16.60;;;13.73;;
17171;SDS011;8701;50.150;8.756;2023-03-22T01:38:21;20.20;;;13.00;;
17171;SDS011;8701;50.150;8.756;2023-03-22T01:42:31;16.07;;;12.53;;
17171;SDS011;8701;50.150;8.756;2023-03-22T01:46:36;16.03;;;11.97;;
17171;SDS011;8701;50.150;8.756;2023-03-22T01:50:41;23.23;;;13.33;;
17171;SDS011;8701;50.150;8.756;2023-03-22T01:54:46;15.93;;;11.33;;
17171;SDS011;8701;50.150;8.756;2023-03-22T01:59:12;13.30;;;10.10;;
17171;SDS011;8701;50.150;8.756;2023-03-22T02:03:36;12.83;;;9.50;;
17171;SDS011;8701;50.150;8.756;2023-03-22T02:07:47;15.00;;;9.33;;
17171;SDS011;8701;50.150;8.756;2023-03-22T02:11:51;12.00;;;8.73;;
17171;SDS011;8701;50.150;8.756;2023-03-22T02:16:08;10.13;;;7.77;;
17171;SDS011;8701;50.150;8.756;2023-03-22T02:20:49;12.93;;;8.40;;
17171;SDS011;8701;50.150;8.756;2023-03-22T02:25:29;11.90;;;8.30;;
17171;SDS011;8701;50.150;8.756;2023-03-22T02:29:44;12.73;;;8.27;;
17171;SDS011;8701;50.150;8.756;2023-03-22T02:33:56;10.17;;;7.50;;
17171;SDS011;8701;50.150;8.756;2023-03-22T02:38:19;11.23;;;8.60;;
17171;SDS011;8701;50.150;8.756;2023-03-22T02:42:46;11.87;;;7.97;;
17171;SDS011;8701;50.150;8.756;2023-03-22T02:46:58;10.20;;;7.87;;
17171;SDS011;8701;50.150;8.756;2023-03-22T02:51:05;10.73;;;8.97;;
17171;SDS011;8701;50.150;8.756;2023-03-22T02:55:12;13.00;;;10.10;;
17171;SDS011;8701;50.150;8.756;2023-03-22T02:59:20;11.10;;;9.80;;
17171;SDS011;8701;50.150;8.756;2023-03-22T03:03:25;13.60;;;9.30;;
17171;SDS011;8701;50.150;8.756;2023-03-22T03:07:30;13.20;;;10.70;;
17171;SDS011;8701;50.150;8.756;2023-03-22T03:11:32;13.90;;;9.87;;
17171;SDS011;8701;50.150;8.756;2023-03-22T03:15:37;11.50;;;9.23;;
17171;SDS011;8701;50.150;8.756;2023-03-22T03:19:44;11.27;;;8.93;;
17171;SDS011;8701;50.150;8.756;2023-03-22T03:23:58;14.77;;;9.40;;
17171;SDS011;8701;50.150;8.756;2023-03-22T03:28:07;13.77;;;9.30;;
17171;SDS011;8701;50.150;8.756;2023-03-22T03:32:16;15.00;;;8.90;;
17171;SDS011;8701;50.150;8.756;2023-03-22T03:36:25;11.47;;;8.97;;
17171;SDS011;8701;50.150;8.756;2023-03-22T03:40:29;12.70;;;9.20;;
17171;SDS011;8701;50.150;8.756;2023-03-22T03:44:34;10.80;;;8.40;;
17171;SDS011;8701;50.150;8.756;2023-03-22T03:48:40;10.43;;;8.50;;
17171;SDS011;8701;50.150;8.756;2023-03-22T03:52:46;11.43;;;9.00;;
17171;SDS011;8701;50.150;8.756;2023-03-22T03:56:48;10.37;;;8.73;;
17171;SDS011;8701;50.150;8.756;2023-03-22T04:00:50;10.93;;;8.50;;
17171;SDS011;8701;50.150;8.756;2023-03-22T04:05:14;12.07;;;8.27;;
17171;SDS011;8701;50.150;8.756;2023-03-22T04:09:17;9.20;;;8.10;;
17171;SDS011;8701;50.150;8.756;2023-03-22T04:13:24;11.90;;;8.40;;
17171;SDS011;8701;50.150;8.756;2023-03-22T04:17:32;11.33;;;8.40;;
17171;SDS011;8701;50.150;8.756;2023-03-22T04:21:35;13.53;;;9.30;;
17171;SDS011;8701;50.150;8.756;2023-03-22T04:25:38;12.10;;;8.90;;
17171;SDS011;8701;50.150;8.756;2023-03-22T04:29:44;11.43;;;7.67;;
17171;SDS011;8701;50.150;8.756;2023-03-22T04:34:05;20.27;;;9.30;;
17171;SDS011;8701;50.150;8.756;2023-03-22T04:38:24;10.07;;;7.93;;
17171;SDS011;8701;50.150;8.756;2023-03-22T04:42:28;11.63;;;8.50;;
17171;SDS011;8701;50.150;8.756;2023-03-22T04:46:39;10.67;;;8.10;;
17171;SDS011;8701;50.150;8.756;2023-03-22T04:50:43;11.07;;;7.77;;
17171;SDS011;8701;50.150;8.756;2023-03-22T04:54:47;11.63;;;7.83;;
17171;SDS011;8701;50.150;8.756;2023-03-22T04:58:50;11.50;;;8.47;;
17171;SDS011;8701;50.150;8.756;2023-03-22T05:02:52;10.27;;;8.30;;
17171;SDS011;8701;50.150;8.756;2023-03-22T05:07:04;11.73;;;8.83;;
17171;SDS011;8701;50.150;8.756;2023-03-22T05:11:19;10.50;;;8.13;;
17171;SDS011;8701;50.150;8.756;2023-03-22T05:15:37;9.73;;;7.90;;
17171;SDS011;8701;50.150;8.756;2023-03-22T05:19:41;11.70;;;8.20;;
17171;SDS011;8701;50.150;8.756;2023-03-22T05:23:44;8.70;;;7.80;;
17171;SDS011;8701;50.150;8.756;2023-03-22T05:27:48;11.30;;;8.63;;
17171;SDS011;8701;50.150;8.756;2023-03-22T05:32:23;13.80;;;9.10;;
17171;SDS011;8701;50.150;8.756;2023-03-22T05:36:29;12.73;;;8.20;;
17171;SDS011;8701;50.150;8.756;2023-03-22T05:40:47;16.90;;;12.07;;
17171;SDS011;8701;50.150;8.756;2023-03-22T05:44:51;10.30;;;8.13;;
17171;SDS011;8701;50.150;8.756;2023-03-22T05:48:55;11.20;;;9.40;;
17171;SDS011;8701;50.150;8.756;2023-03-22T05:52:57;11.27;;;8.47;;
17171;SDS011;8701;50.150;8.756;2023-03-22T05:57:06;11.50;;;8.47;;
17171;SDS011;8701;50.150;8.756;2023-03-22T06:01:10;11.10;;;8.73;;
17171;SDS011;8701;50.150;8.756;2023-03-22T06:05:22;16.50;;;10.40;;
17171;SDS011;8701;50.150;8.756;2023-03-22T06:09:25;12.97;;;9.67;;
17171;SDS011;8701;50.150;8.756;2023-03-22T06:13:28;16.43;;;9.50;;
17171;SDS011;8701;50.150;8.756;2023-03-22T06:17:31;13.20;;;9.40;;
17171;SDS011;8701;50.150;8.756;2023-03-22T06:21:34;11.47;;;9.10;;
17171;SDS011;8701;50.150;8.756;2023-03-22T06:25:37;11.27;;;9.10;;
17171;SDS011;8701;50.150;8.756;2023-03-22T06:29:39;14.90;;;8.53;;
17171;SDS011;8701;50.150;8.756;2023-03-22T06:33:43;12.80;;;10.17;;
17171;SDS011;8701;50.150;8.756;2023-03-22T06:38:08;13.77;;;9.70;;
17171;SDS011;8701;50.150;8.756;2023-03-22T06:42:12;13.43;;;9.50;;
17171;SDS011;8701;50.150;8.756;2023-03-22T06:46:16;13.50;;;10.10;;
17171;SDS011;8701;50.150;8.756;2023-03-22T06:50:29;16.70;;;10.20;;
17171;SDS011;8701;50.150;8.756;2023-03-22T06:54:46;13.70;;;10.80;;
17171;SDS011;8701;50.150;8.756;2023-03-22T06:58:48;15.37;;;10.33;;
17171;SDS011;8701;50.150;8.756;2023-03-22T07:02:51;15.27;;;10.70;;
17171;SDS011;8701;50.150;8.756;2023-03-22T07:07:13;13.47;;;11.20;;
17171;SDS011;8701;50.150;8.756;2023-03-22T07:11:16;16.47;;;9.80;;
17171;SDS011;8701;50.150;8.756;2023-03-22T07:15:23;17.03;;;9.20;;
17171;SDS011;8701;50.150;8.756;2023-03-22T07:19:39;10.67;;;8.40;;
17171;SDS011;8701;50.150;8.756;2023-03-22T07:23:44;12.20;;;8.93;;
17171;SDS011;8701;50.150;8.756;2023-03-22T07:27:50;11.40;;;8.30;;
17171;SDS011;8701;50.150;8.756;2023-03-22T07:31:55;10.90;;;7.30;;
17171;SDS011;8701;50.150;8.756;2023-03-22T07:36:02;10.23;;;6.77;;
17171;SDS011;8701;50.150;8.756;2023-03-22T07:40:07;9.53;;;6.00;;
17171;SDS011;8701;50.150;8.756;2023-03-22T07:44:11;7.90;;;6.47;;
17171;SDS011;8701;50.150;8.756;2023-03-22T07:48:17;10.13;;;5.30;;
17171;SDS011;8701;50.150;8.756;2023-03-22T07:52:56;6.73;;;4.70;;
17171;SDS011;8701;50.150;8.756;2023-03-22T07:57:00;6.80;;;5.23;;
17171;SDS011;8701;50.150;8.756;2023-03-22T08:01:04;6.30;;;4.80;;
17171;SDS011;8701;50.150;8.756;2023-03-22T08:05:29;7.37;;;4.60;;
17171;SDS011;8701;50.150;8.756;2023-03-22T08:09:35;9.97;;;4.40;;
17171;SDS011;8701;50.150;8.756;2023-03-22T08:13:40;6.83;;;4.33;;
17171;SDS011;8701;50.150;8.756;2023-03-22T08:17:44;13.47;;;4.50;;
17171;SDS011;8701;50.150;8.756;2023-03-22T08:21:55;6.23;;;4.20;;
17171;SDS011;8701;50.150;8.756;2023-03-22T08:26:17;7.40;;;3.60;;
17171;SDS011;8701;50.150;8.756;2023-03-22T08:30:21;7.80;;;4.20;;
17171;SDS011;8701;50.150;8.756;2023-03-22T08:34:24;6.47;;;3.60;;
17171;SDS011;8701;50.150;8.756;2023-03-22T08:38:26;8.57;;;4.17;;
17171;SDS011;8701;50.150;8.756;2023-03-22T08:42:29;15.27;;;3.63;;
17171;SDS011;8701;50.150;8.756;2023-03-22T08:46:33;5.40;;;3.20;;
17171;SDS011;8701;50.150;8.756;2023-03-22T08:50:36;4.83;;;3.07;;
17171;SDS011;8701;50.150;8.756;2023-03-22T08:54:45;7.40;;;4.10;;
17171;SDS011;8701;50.150;8.756;2023-03-22T08:59:17;7.07;;;3.63;;
17171;SDS011;8701;50.150;8.756;2023-03-22T09:03:42;10.40;;;3.40;;
17171;SDS011;8701;50.150;8.756;2023-03-22T09:07:45;8.30;;;3.07;;
17171;SDS011;8701;50.150;8.756;2023-03-22T09:11:59;7.60;;;3.10;;
17171;SDS011;8701;50.150;8.756;2023-03-22T09:16:03;3.83;;;2.50;;
17171;SDS011;8701;50.150;8.756;2023-03-22T09:20:10;4.93;;;2.53;;
17171;SDS011;8701;50.150;8.756;2023-03-22T09:24:14;3.20;;;2.47;;
17171;SDS011;8701;50.150;8.756;2023-03-22T09:28:19;4.83;;;2.27;;
17171;SDS011;8701;50.150;8.756;2023-03-22T09:32:23;5.73;;;2.60;;
17171;SDS011;8701;50.150;8.756;2023-03-22T09:36:33;3.40;;;2.40;;
17171;SDS011;8701;50.150;8.756;2023-03-22T09:40:38;9.03;;;1.97;;
17171;SDS011;8701;50.150;8.756;2023-03-22T09:44:50;6.13;;;2.50;;
17171;SDS011;8701;50.150;8.756;2023-03-22T09:48:58;2.60;;;1.63;;
17171;SDS011;8701;50.150;8.756;2023-03-22T09:53:09;4.50;;;1.77;;
17171;SDS011;8701;50.150;8.756;2023-03-22T09:57:18;2.87;;;1.90;;
17171;SDS011;8701;50.150;8.756;2023-03-22T10:01:29;8.40;;;1.93;;
17171;SDS011;8701;50.150;8.756;2023-03-22T10:05:39;3.20;;;2.07;;
17171;SDS011;8701;50.150;8.756;2023-03-22T10:09:50;4.30;;;2.00;;
17171;SDS011;8701;50.150;8.756;2023-03-22T10:13:58;6.80;;;1.97;;
17171;SDS011;8701;50.150;8.756;2023-03-22T10:18:11;2.73;;;1.73;;
17171;SDS011;8701;50.150;8.756;2023-03-22T10:22:19;3.57;;;1.73;;
17171;SDS011;8701;50.150;8.756;2023-03-22T10:26:27;1.77;;;1.67;;
17171;SDS011;8701;50.150;8.756;2023-03-22T10:30:32;3.20;;;1.90;;
17171;SDS011;8701;50.150;8.756;2023-03-22T10:34:38;5.80;;;1.63;;
17171;SDS011;8701;50.150;8.756;2023-03-22T10:38:42;3.00;;;1.50;;
17171;SDS011;8701;50.150;8.756;2023-03-22T10:42:50;2.07;;;1.27;;
17171;SDS011;8701;50.150;8.756;2023-03-22T10:46:55;2.30;;;1.30;;
17171;SDS011;8701;50.150;8.756;2023-03-22T10:51:06;2.50;;;1.30;;
17171;SDS011;8701;50.150;8.756;2023-03-22T10:55:16;4.07;;;1.53;;
17171;SDS011;8701;50.150;8.756;2023-03-22T11:03:47;3.47;;;1.30;;
17171;SDS011;8701;50.150;8.756;2023-03-22T11:07:51;2.17;;;1.20;;
17171;SDS011;8701;50.150;8.756;2023-03-22T11:11:54;4.00;;;1.27;;
17171;SDS011;8701;50.150;8.756;2023-03-22T11:15:59;2.87;;;1.23;;
17171;SDS011;8701;50.150;8.756;2023-03-22T11:20:03;1.40;;;1.00;;
17171;SDS011;8701;50.150;8.756;2023-03-22T11:24:09;6.20;;;1.20;;
17171;SDS011;8701;50.150;8.756;2023-03-22T11:28:15;3.83;;;1.20;;
17171;SDS011;8701;50.150;8.756;2023-03-22T11:32:24;6.73;;;1.30;;
17171;SDS011;8701;50.150;8.756;2023-03-22T11:36:28;1.43;;;1.20;;
17171;SDS011;8701;50.150;8.756;2023-03-22T11:40:33;1.83;;;1.60;;
17171;SDS011;8701;50.150;8.756;2023-03-22T11:44:36;1.20;;;1.10;;
17171;SDS011;8701;50.150;8.756;2023-03-22T11:48:40;3.20;;;1.10;;
17171;SDS011;8701;50.150;8.756;2023-03-22T11:52:45;2.60;;;1.20;;
17171;SDS011;8701;50.150;8.756;2023-03-22T11:56:48;3.40;;;1.37;;
17171;SDS011;8701;50.150;8.756;2023-03-22T12:00:51;9.50;;;1.50;;
17171;SDS011;8701;50.150;8.756;2023-03-22T12:04:58;1.30;;;1.20;;
17171;SDS011;8701;50.150;8.756;2023-03-22T12:09:08;1.80;;;1.40;;
17171;SDS011;8701;50.150;8.756;2023-03-22T12:13:18;1.20;;;1.10;;
17171;SDS011;8701;50.150;8.756;2023-03-22T12:17:29;2.50;;;1.20;;
17171;SDS011;8701;50.150;8.756;2023-03-22T12:21:37;2.93;;;1.17;;
17171;SDS011;8701;50.150;8.756;2023-03-22T12:25:41;1.53;;;1.30;;
17171;SDS011;8701;50.150;8.756;2023-03-22T12:29:48;1.30;;;1.20;;
17171;SDS011;8701;50.150;8.756;2023-03-22T12:33:55;2.50;;;1.30;;
17171;SDS011;8701;50.150;8.756;2023-03-22T12:38:04;1.20;;;1.10;;
17171;SDS011;8701;50.150;8.756;2023-03-22T12:42:12;1.57;;;1.00;;
17171;SDS011;8701;50.150;8.756;2023-03-22T12:46:22;6.30;;;1.60;;
17171;SDS011;8701;50.150;8.756;2023-03-22T12:50:28;3.90;;;1.50;;
17171;SDS011;8701;50.150;8.756;2023-03-22T12:54:35;2.03;;;1.30;;
17171;SDS011;8701;50.150;8.756;2023-03-22T12:58:38;4.23;;;1.40;;
17171;SDS011;8701;50.150;8.756;2023-03-22T13:02:45;3.20;;;1.50;;
17171;SDS011;8701;50.150;8.756;2023-03-22T13:06:56;2.20;;;1.20;;
17171;SDS011;8701;50.150;8.756;2023-03-22T13:11:14;4.13;;;1.20;;
17171;SDS011;8701;50.150;8.756;2023-03-22T13:15:27;2.70;;;2.13;;
17171;SDS011;8701;50.150;8.756;2023-03-22T13:19:33;3.13;;;1.13;;
17171;SDS011;8701;50.150;8.756;2023-03-22T13:23:50;3.07;;;1.43;;
17171;SDS011;8701;50.150;8.756;2023-03-22T13:27:56;2.70;;;1.70;;
17171;SDS011;8701;50.150;8.756;2023-03-22T13:32:03;3.20;;;1.30;;
17171;SDS011;8701;50.150;8.756;2023-03-22T13:36:20;1.97;;;1.10;;
17171;SDS011;8701;50.150;8.756;2023-03-22T13:40:28;1.20;;;1.10;;
17171;SDS011;8701;50.150;8.756;2023-03-22T13:44:37;7.23;;;1.60;;
17171;SDS011;8701;50.150;8.756;2023-03-22T13:48:50;4.30;;;1.37;;
17171;SDS011;8701;50.150;8.756;2023-03-22T13:52:56;3.80;;;1.30;;
17171;SDS011;8701;50.150;8.756;2023-03-22T13:57:03;13.10;;;1.77;;
17171;SDS011;8701;50.150;8.756;2023-03-22T14:01:21;1.43;;;1.20;;
17171;SDS011;8701;50.150;8.756;2023-03-22T14:05:29;1.80;;;1.10;;
17171;SDS011;8701;50.150;8.756;2023-03-22T14:09:37;2.00;;;1.33;;
17171;SDS011;8701;50.150;8.756;2023-03-22T14:13:44;1.30;;;1.20;;
17171;SDS011;8701;50.150;8.756;2023-03-22T14:17:52;4.00;;;1.40;;
17171;SDS011;8701;50.150;8.756;2023-03-22T14:21:58;1.13;;;1.03;;
17171;SDS011;8701;50.150;8.756;2023-03-22T14:26:05;8.13;;;1.47;;
17171;SDS011;8701;50.150;8.756;2023-03-22T14:30:19;1.30;;;1.20;;
17171;SDS011;8701;50.150;8.756;2023-03-22T14:34:32;3.20;;;1.10;;
17171;SDS011;8701;50.150;8.756;2023-03-22T14:38:39;2.30;;;1.37;;
17171;SDS011;8701;50.150;8.756;2023-03-22T14:42:43;4.60;;;1.30;;
17171;SDS011;8701;50.150;8.756;2023-03-22T14:46:45;3.00;;;1.40;;
17171;SDS011;8701;50.150;8.756;2023-03-22T14:50:50;1.40;;;1.30;;
17171;SDS011;8701;50.150;8.756;2023-03-22T14:54:55;2.13;;;1.10;;
17171;SDS011;8701;50.150;8.756;2023-03-22T14:59:00;1.57;;;1.30;;
17171;SDS011;8701;50.150;8.756;2023-03-22T15:03:06;2.70;;;1.47;;
17171;SDS011;8701;50.150;8.756;2023-03-22T15:07:11;2.47;;;1.17;;
17171;SDS011;8701;50.150;8.756;2023-03-22T15:11:13;1.40;;;1.30;;
17171;SDS011;8701;50.150;8.756;2023-03-22T15:15:18;1.97;;;1.30;;
17171;SDS011;8701;50.150;8.756;2023-03-22T15:19:32;1.37;;;1.17;;
17171;SDS011;8701;50.150;8.756;2023-03-22T15:23:45;3.00;;;1.70;;
17171;SDS011;8701;50.150;8.756;2023-03-22T15:27:49;2.33;;;1.60;;
17171;SDS011;8701;50.150;8.756;2023-03-22T15:31:52;1.50;;;1.40;;
17171;SDS011;8701;50.150;8.756;2023-03-22T15:35:56;7.90;;;2.70;;
17171;SDS011;8701;50.150;8.756;2023-03-22T15:40:01;3.13;;;2.00;;
17171;SDS011;8701;50.150;8.756;2023-03-22T15:44:13;2.17;;;1.27;;
17171;SDS011;8701;50.150;8.756;2023-03-22T15:48:20;2.43;;;1.30;;
17171;SDS011;8701;50.150;8.756;2023-03-22T15:52:26;1.37;;;1.23;;
17171;SDS011;8701;50.150;8.756;2023-03-22T15:56:33;5.97;;;2.00;;
17171;SDS011;8701;50.150;8.756;2023-03-22T16:00:38;1.77;;;1.30;;
17171;SDS011;8701;50.150;8.756;2023-03-22T16:04:41;2.57;;;1.30;;
17171;SDS011;8701;50.150;8.756;2023-03-22T16:08:43;3.90;;;1.50;;
17171;SDS011;8701;50.150;8.756;2023-03-22T16:12:47;2.67;;;1.60;;
17171;SDS011;8701;50.150;8.756;2023-03-22T16:16:49;2.47;;;1.40;;
17171;SDS011;8701;50.150;8.756;2023-03-22T16:20:52;8.70;;;1.40;;
17171;SDS011;8701;50.150;8.756;2023-03-22T16:24:55;1.40;;;1.13;;
17171;SDS011;8701;50.150;8.756;2023-03-22T16:29:01;2.90;;;1.53;;
17171;SDS011;8701;50.150;8.756;2023-03-22T16:33:03;5.63;;;1.33;;
17171;SDS011;8701;50.150;8.756;2023-03-22T16:37:09;13.77;;;1.63;;
17171;SDS011;8701;50.150;8.756;2023-03-22T16:41:17;18.60;;;3.40;;
17171;SDS011;8701;50.150;8.756;2023-03-22T16:45:24;1.50;;;1.40;;
17171;SDS011;8701;50.150;8.756;2023-03-22T16:49:28;3.37;;;1.50;;
17171;SDS011;8701;50.150;8.756;2023-03-22T16:53:31;2.33;;;1.20;;
17171;SDS011;8701;50.150;8.756;2023-03-22T16:57:33;2.70;;;1.57;;
17171;SDS011;8701;50.150;8.756;2023-03-22T17:01:39;2.83;;;1.70;;
17171;SDS011;8701;50.150;8.756;2023-03-22T17:05:41;4.10;;;2.30;;
17171;SDS011;8701;50.150;8.756;2023-03-22T17:09:43;4.00;;;2.07;;
17171;SDS011;8701;50.150;8.756;2023-03-22T17:13:45;1.87;;;1.53;;
17171;SDS011;8701;50.150;8.756;2023-03-22T17:17:49;2.07;;;1.50;;
17171;SDS011;8701;50.150;8.756;2023-03-22T17:21:51;7.80;;;1.63;;
17171;SDS011;8701;50.150;8.756;2023-03-22T17:25:53;2.97;;;1.80;;
17171;SDS011;8701;50.150;8.756;2023-03-22T17:29:55;5.60;;;2.07;;
17171;SDS011;8701;50.150;8.756;2023-03-22T17:33:59;2.33;;;1.93;;
17171;SDS011;8701;50.150;8.756;2023-03-22T17:38:01;2.90;;;1.93;;
17171;SDS011;8701;50.150;8.756;2023-03-22T17:42:04;2.60;;;1.83;;
17171;SDS011;8701;50.150;8.756;2023-03-22T17:46:08;2.90;;;1.80;;
17171;SDS011;8701;50.150;8.756;2023-03-22T17:50:13;3.73;;;2.33;;
17171;SDS011;8701;50.150;8.756;2023-03-22T17:54:16;4.03;;;2.20;;
17171;SDS011;8701;50.150;8.756;2023-03-22T17:58:18;2.07;;;1.40;;
17171;SDS011;8701;50.150;8.756;2023-03-22T18:02:20;3.33;;;1.60;;
17171;SDS011;8701;50.150;8.756;2023-03-22T18:06:23;1.73;;;1.40;;
17171;SDS011;8701;50.150;8.756;2023-03-22T18:10:26;1.90;;;1.70;;
17171;SDS011;8701;50.150;8.756;2023-03-22T18:14:28;2.87;;;1.60;;
17171;SDS011;8701;50.150;8.756;2023-03-22T18:18:31;3.63;;;2.13;;
17171;SDS011;8701;50.150;8.756;2023-03-22T18:22:35;4.70;;;2.20;;
17171;SDS011;8701;50.150;8.756;2023-03-22T18:26:37;3.00;;;1.90;;
17171;SDS011;8701;50.150;8.756;2023-03-22T18:30:40;2.87;;;1.90;;
17171;SDS011;8701;50.150;8.756;2023-03-22T18:34:42;3.43;;;1.77;;
17171;SDS011;8701;50.150;8.756;2023-03-22T18:38:45;8.53;;;1.80;;
17171;SDS011;8701;50.150;8.756;2023-03-22T18:42:48;4.87;;;2.10;;
17171;SDS011;8701;50.150;8.756;2023-03-22T18:46:50;1.67;;;1.40;;
17171;SDS011;8701;50.150;8.756;2023-03-22T18:50:53;3.80;;;2.30;;
17171;SDS011;8701;50.150;8.756;2023-03-22T18:54:57;5.40;;;1.70;;
17171;SDS011;8701;50.150;8.756;2023-03-22T18:58:59;2.63;;;1.77;;
17171;SDS011;8701;50.150;8.756;2023-03-22T19:03:02;2.20;;;1.50;;
17171;SDS011;8701;50.150;8.756;2023-03-22T19:07:05;1.37;;;1.23;;
17171;SDS011;8701;50.150;8.756;2023-03-22T19:11:08;2.67;;;1.27;;
17171;SDS011;8701;50.150;8.756;2023-03-22T19:15:11;2.47;;;1.37;;
17171;SDS011;8701;50.150;8.756;2023-03-22T19:19:13;5.30;;;1.47;;
17171;SDS011;8701;50.150;8.756;2023-03-22T19:23:16;1.93;;;1.30;;
17171;SDS011;8701;50.150;8.756;2023-03-22T19:27:19;5.40;;;1.40;;
17171;SDS011;8701;50.150;8.756;2023-03-22T19:31:22;3.20;;;1.40;;
17171;SDS011;8701;50.150;8.756;2023-03-22T19:35:27;1.37;;;1.10;;
17171;SDS011;8701;50.150;8.756;2023-03-22T19:39:29;3.37;;;1.50;;
17171;SDS011;8701;50.150;8.756;2023-03-22T19:43:33;2.00;;;1.50;;
17171;SDS011;8701;50.150;8.756;2023-03-22T19:47:35;1.27;;;1.17;;
17171;SDS011;8701;50.150;8.756;2023-03-22T19:51:37;3.17;;;1.20;;
17171;SDS011;8701;50.150;8.756;2023-03-22T19:55:40;2.03;;;1.30;;
17171;SDS011;8701;50.150;8.756;2023-03-22T19:59:43;2.20;;;1.30;;
17171;SDS011;8701;50.150;8.756;2023-03-22T20:03:45;2.83;;;1.00;;
17171;SDS011;8701;50.150;8.756;2023-03-22T20:07:48;1.23;;;1.10;;
17171;SDS011;8701;50.150;8.756;2023-03-22T20:11:51;1.40;;;1.10;;
17171;SDS011;8701;50.150;8.756;2023-03-22T20:15:54;3.17;;;1.53;;
17171;SDS011;8701;50.150;8.756;2023-03-22T20:19:56;1.70;;;1.30;;
17171;SDS011;8701;50.150;8.756;2023-03-22T20:23:59;3.23;;;1.30;;
17171;SDS011;8701;50.150;8.756;2023-03-22T20:28:02;2.30;;;1.40;;
17171;SDS011;8701;50.150;8.756;2023-03-22T20:32:05;2.13;;;1.40;;
17171;SDS011;8701;50.150;8.756;2023-03-22T20:36:08;2.97;;;1.30;;
17171;SDS011;8701;50.150;8.756;2023-03-22T20:40:11;5.73;;;1.43;;
17171;SDS011;8701;50.150;8.756;2023-03-22T20:44:13;3.27;;;1.50;;
17171;SDS011;8701;50.150;8.756;2023-03-22T20:48:17;1.00;;;1.00;;
17171;SDS011;8701;50.150;8.756;2023-03-22T20:52:20;3.00;;;1.40;;
17171;SDS011;8701;50.150;8.756;2023-03-22T20:56:22;3.47;;;1.50;;
17171;SDS011;8701;50.150;8.756;2023-03-22T21:00:25;2.40;;;1.60;;
17171;SDS011;8701;50.150;8.756;2023-03-22T21:04:28;1.93;;;1.30;;
17171;SDS011;8701;50.150;8.756;2023-03-22T21:08:31;2.23;;;1.37;;
17171;SDS011;8701;50.150;8.756;2023-03-22T21:12:35;1.90;;;1.33;;
17171;SDS011;8701;50.150;8.756;2023-03-22T21:16:38;1.67;;;1.30;;
17171;SDS011;8701;50.150;8.756;2023-03-22T21:20:45;4.80;;;1.50;;
17171;SDS011;8701;50.150;8.756;2023-03-22T21:24:47;1.37;;;1.27;;
17171;SDS011;8701;50.150;8.756;2023-03-22T21:28:49;1.30;;;1.20;;
17171;SDS011;8701;50.150;8.756;2023-03-22T21:32:51;5.13;;;1.20;;
17171;SDS011;8701;50.150;8.756;2023-03-22T21:36:55;2.90;;;1.40;;
17171;SDS011;8701;50.150;8.756;2023-03-22T21:40:58;2.70;;;1.50;;
17171;SDS011;8701;50.150;8.756;2023-03-22T21:45:03;2.60;;;1.50;;
17171;SDS011;8701;50.150;8.756;2023-03-22T21:49:07;2.43;;;1.30;;
17171;SDS011;8701;50.150;8.756;2023-03-22T21:53:12;1.70;;;1.20;;
17171;SDS011;8701;50.150;8.756;2023-03-22T21:57:15;2.07;;;1.10;;
17171;SDS011;8701;50.150;8.756;2023-03-22T22:01:18;1.40;;;1.10;;
17171;SDS011;8701;50.150;8.756;2023-03-22T22:05:21;1.47;;;1.03;;
17171;SDS011;8701;50.150;8.756;2023-03-22T22:09:24;1.60;;;1.10;;
17171;SDS011;8701;50.150;8.756;2023-03-22T22:13:27;4.03;;;1.00;;
17171;SDS011;8701;50.150;8.756;2023-03-22T22:17:30;1.27;;;1.10;;
17171;SDS011;8701;50.150;8.756;2023-03-22T22:21:32;2.27;;;1.13;;
17171;SDS011;8701;50.150;8.756;2023-03-22T22:25:36;1.27;;;0.90;;
17171;SDS011;8701;50.150;8.756;2023-03-22T22:29:41;2.77;;;1.20;;
17171;SDS011;8701;50.150;8.756;2023-03-22T22:33:43;2.40;;;1.10;;
17171;SDS011;8701;50.150;8.756;2023-03-22T22:37:46;1.33;;;1.20;;
17171;SDS011;8701;50.150;8.756;2023-03-22T22:41:50;2.73;;;1.07;;
17171;SDS011;8701;50.150;8.756;2023-03-22T22:45:53;3.57;;;0.80;;
17171;SDS011;8701;50.150;8.756;2023-03-22T22:49:55;1.00;;;0.90;;
17171;SDS011;8701;50.150;8.756;2023-03-22T22:53:57;3.80;;;1.40;;
17171;SDS011;8701;50.150;8.756;2023-03-22T22:58:01;1.40;;;1.17;;
17171;SDS011;8701;50.150;8.756;2023-03-22T23:02:03;2.13;;;1.03;;
17171;SDS011;8701;50.150;8.756;2023-03-22T23:06:06;2.10;;;1.00;;
17171;SDS011;8701;50.150;8.756;2023-03-22T23:10:09;3.13;;;0.90;;
17171;SDS011;8701;50.150;8.756;2023-03-22T23:14:13;2.87;;;1.30;;
17171;SDS011;8701;50.150;8.756;2023-03-22T23:18:15;1.20;;;0.87;;
17171;SDS011;8701;50.150;8.756;2023-03-22T23:22:22;1.43;;;1.20;;
17171;SDS011;8701;50.150;8.756;2023-03-22T23:26:29;1.10;;;0.90;;
17171;SDS011;8701;50.150;8.756;2023-03-22T23:30:33;2.70;;;1.10;;
17171;SDS011;8701;50.150;8.756;2023-03-22T23:34:35;4.07;;;1.40;;
17171;SDS011;8701;50.150;8.756;2023-03-22T23:38:37;2.40;;;1.03;;
17171;SDS011;8701;50.150;8.756;2023-03-22T23:42:39;6.00;;;1.13;;
17171;SDS011;8701;50.150;8.756;2023-03-22T23:46:43;1.40;;;1.30;;
17171;SDS011;8701;50.150;8.756;2023-03-22T23:50:45;1.57;;;1.10;;
17171;SDS011;8701;50.150;8.756;2023-03-22T23:54:48;1.10;;;1.00;;
17171;SDS011;8701;50.150;8.756;2023-03-22T23:58:50;4.30;;;1.30;;
